sensor_id;sensor_type;location;lat;lon;timestamp;P1;durP1;ratioP1;P2;durP2;ratioP2
46653;SDS011;38960;51.074;17.004;2024-03-23T00:54:37;25.20;;;13.77;;
46653;SDS011;38960;51.074;17.004;2024-03-23T00:57:03;25.13;;;14.00;;
46653;SDS011;38960;51.074;17.004;2024-03-23T00:59:28;23.25;;;13.77;;
46653;SDS011;38960;51.074;17.004;2024-03-23T01:01:56;24.33;;;14.52;;
46653;SDS011;38960;51.074;17.004;2024-03-23T01:04:22;24.25;;;13.65;;
46653;SDS011;38960;51.074;17.004;2024-03-23T01:06:47;24.20;;;13.18;;
46653;SDS011;38960;51.074;17.004;2024-03-23T01:09:13;23.83;;;13.10;;
46653;SDS011;38960;51.074;17.004;2024-03-23T01:11:38;25.88;;;12.93;;
46653;SDS011;38960;51.074;17.004;2024-03-23T01:14:04;25.67;;;12.45;;
46653;SDS011;38960;51.074;17.004;2024-03-23T01:16:31;18.70;;;11.63;;
46653;SDS011;38960;51.074;17.004;2024-03-23T01:18:57;22.25;;;11.52;;
46653;SDS011;38960;51.074;17.004;2024-03-23T01:21:22;20.20;;;12.55;;
46653;SDS011;38960;51.074;17.004;2024-03-23T01:23:48;26.60;;;13.98;;
46653;SDS011;38960;51.074;17.004;2024-03-23T01:26:13;20.38;;;12.63;;
46653;SDS011;38960;51.074;17.004;2024-03-23T01:28:40;20.98;;;11.45;;
46653;SDS011;38960;51.074;17.004;2024-03-23T01:31:05;25.05;;;11.75;;
46653;SDS011;38960;51.074;17.004;2024-03-23T01:33:31;21.42;;;12.55;;
46653;SDS011;38960;51.074;17.004;2024-03-23T01:35:56;23.05;;;11.55;;
46653;SDS011;38960;51.074;17.004;2024-03-23T01:38:22;19.80;;;11.75;;
46653;SDS011;38960;51.074;17.004;2024-03-23T01:40:47;23.10;;;12.57;;
46653;SDS011;38960;51.074;17.004;2024-03-23T01:43:13;19.25;;;12.88;;
46653;SDS011;38960;51.074;17.004;2024-03-23T01:45:38;18.95;;;10.90;;
46653;SDS011;38960;51.074;17.004;2024-03-23T01:48:04;19.25;;;11.18;;
46653;SDS011;38960;51.074;17.004;2024-03-23T01:50:30;20.50;;;11.68;;
46653;SDS011;38960;51.074;17.004;2024-03-23T01:52:59;25.55;;;12.25;;
46653;SDS011;38960;51.074;17.004;2024-03-23T01:55:25;18.55;;;11.45;;
46653;SDS011;38960;51.074;17.004;2024-03-23T01:57:52;18.17;;;10.10;;
46653;SDS011;38960;51.074;17.004;2024-03-23T02:00:18;19.05;;;10.82;;
46653;SDS011;38960;51.074;17.004;2024-03-23T02:02:46;16.77;;;10.98;;
46653;SDS011;38960;51.074;17.004;2024-03-23T02:05:12;16.55;;;10.02;;
46653;SDS011;38960;51.074;17.004;2024-03-23T02:07:41;15.63;;;10.38;;
46653;SDS011;38960;51.074;17.004;2024-03-23T02:10:08;19.55;;;10.32;;
46653;SDS011;38960;51.074;17.004;2024-03-23T02:12:34;18.08;;;10.82;;
46653;SDS011;38960;51.074;17.004;2024-03-23T02:15:00;25.80;;;11.30;;
46653;SDS011;38960;51.074;17.004;2024-03-23T02:17:26;20.05;;;10.65;;
46653;SDS011;38960;51.074;17.004;2024-03-23T02:19:51;18.50;;;10.55;;
46653;SDS011;38960;51.074;17.004;2024-03-23T02:22:17;16.58;;;10.18;;
46653;SDS011;38960;51.074;17.004;2024-03-23T02:24:42;16.52;;;10.63;;
46653;SDS011;38960;51.074;17.004;2024-03-23T02:27:08;22.85;;;11.77;;
46653;SDS011;38960;51.074;17.004;2024-03-23T02:29:33;17.77;;;11.05;;
46653;SDS011;38960;51.074;17.004;2024-03-23T02:31:59;19.13;;;10.55;;
46653;SDS011;38960;51.074;17.004;2024-03-23T02:34:25;18.30;;;10.43;;
46653;SDS011;38960;51.074;17.004;2024-03-23T02:36:50;21.25;;;10.52;;
46653;SDS011;38960;51.074;17.004;2024-03-23T02:39:16;20.27;;;11.90;;
46653;SDS011;38960;51.074;17.004;2024-03-23T02:41:41;16.77;;;10.32;;
46653;SDS011;38960;51.074;17.004;2024-03-23T02:44:07;18.92;;;11.32;;
46653;SDS011;38960;51.074;17.004;2024-03-23T02:46:33;19.00;;;11.40;;
46653;SDS011;38960;51.074;17.004;2024-03-23T02:48:58;16.40;;;10.90;;
46653;SDS011;38960;51.074;17.004;2024-03-23T02:51:24;15.88;;;10.40;;
46653;SDS011;38960;51.074;17.004;2024-03-23T02:53:49;19.95;;;11.70;;
46653;SDS011;38960;51.074;17.004;2024-03-23T02:56:14;19.73;;;11.70;;
46653;SDS011;38960;51.074;17.004;2024-03-23T02:58:42;20.10;;;11.88;;
46653;SDS011;38960;51.074;17.004;2024-03-23T03:01:08;17.05;;;10.38;;
46653;SDS011;38960;51.074;17.004;2024-03-23T03:03:33;20.08;;;10.50;;
46653;SDS011;38960;51.074;17.004;2024-03-23T03:05:59;18.63;;;10.48;;
46653;SDS011;38960;51.074;17.004;2024-03-23T03:08:24;19.58;;;11.02;;
46653;SDS011;38960;51.074;17.004;2024-03-23T03:10:50;19.02;;;11.52;;
46653;SDS011;38960;51.074;17.004;2024-03-23T03:13:15;19.17;;;9.80;;
46653;SDS011;38960;51.074;17.004;2024-03-23T03:15:42;16.80;;;10.65;;
46653;SDS011;38960;51.074;17.004;2024-03-23T03:18:08;21.00;;;11.68;;
46653;SDS011;38960;51.074;17.004;2024-03-23T03:20:37;18.30;;;11.40;;
46653;SDS011;38960;51.074;17.004;2024-03-23T03:23:04;19.88;;;11.23;;
46653;SDS011;38960;51.074;17.004;2024-03-23T03:25:30;19.35;;;10.95;;
46653;SDS011;38960;51.074;17.004;2024-03-23T03:27:55;16.98;;;10.85;;
46653;SDS011;38960;51.074;17.004;2024-03-23T03:30:21;17.58;;;10.32;;
46653;SDS011;38960;51.074;17.004;2024-03-23T03:32:46;18.17;;;10.68;;
46653;SDS011;38960;51.074;17.004;2024-03-23T03:35:12;20.90;;;11.02;;
46653;SDS011;38960;51.074;17.004;2024-03-23T03:37:37;18.85;;;10.10;;
46653;SDS011;38960;51.074;17.004;2024-03-23T03:40:03;16.15;;;10.10;;
46653;SDS011;38960;51.074;17.004;2024-03-23T03:42:29;17.42;;;10.65;;
46653;SDS011;38960;51.074;17.004;2024-03-23T03:44:54;18.27;;;10.50;;
46653;SDS011;38960;51.074;17.004;2024-03-23T03:47:20;18.00;;;10.98;;
46653;SDS011;38960;51.074;17.004;2024-03-23T03:49:45;17.77;;;10.45;;
46653;SDS011;38960;51.074;17.004;2024-03-23T03:52:11;16.20;;;9.93;;
46653;SDS011;38960;51.074;17.004;2024-03-23T03:54:36;17.33;;;10.85;;
46653;SDS011;38960;51.074;17.004;2024-03-23T03:57:02;18.77;;;9.90;;
46653;SDS011;38960;51.074;17.004;2024-03-23T03:59:28;17.55;;;10.07;;
46653;SDS011;38960;51.074;17.004;2024-03-23T04:01:54;18.65;;;10.77;;
46653;SDS011;38960;51.074;17.004;2024-03-23T04:04:19;18.02;;;11.10;;
46653;SDS011;38960;51.074;17.004;2024-03-23T04:06:45;19.95;;;11.32;;
46653;SDS011;38960;51.074;17.004;2024-03-23T04:09:11;16.17;;;9.98;;
46653;SDS011;38960;51.074;17.004;2024-03-23T04:11:36;17.25;;;10.88;;
46653;SDS011;38960;51.074;17.004;2024-03-23T04:14:02;20.10;;;10.10;;
46653;SDS011;38960;51.074;17.004;2024-03-23T04:16:28;17.40;;;10.48;;
46653;SDS011;38960;51.074;17.004;2024-03-23T04:18:54;18.65;;;11.38;;
46653;SDS011;38960;51.074;17.004;2024-03-23T04:21:20;21.13;;;12.23;;
46653;SDS011;38960;51.074;17.004;2024-03-23T04:23:46;16.80;;;11.00;;
46653;SDS011;38960;51.074;17.004;2024-03-23T04:26:12;20.73;;;10.70;;
46653;SDS011;38960;51.074;17.004;2024-03-23T04:28:37;17.95;;;10.73;;
46653;SDS011;38960;51.074;17.004;2024-03-23T04:31:03;16.48;;;10.65;;
46653;SDS011;38960;51.074;17.004;2024-03-23T04:33:29;20.42;;;10.98;;
46653;SDS011;38960;51.074;17.004;2024-03-23T04:35:55;17.15;;;10.60;;
46653;SDS011;38960;51.074;17.004;2024-03-23T04:38:20;17.20;;;9.73;;
46653;SDS011;38960;51.074;17.004;2024-03-23T04:40:53;18.70;;;10.52;;
46653;SDS011;38960;51.074;17.004;2024-03-23T04:43:22;17.15;;;10.82;;
46653;SDS011;38960;51.074;17.004;2024-03-23T04:45:47;23.85;;;11.88;;
46653;SDS011;38960;51.074;17.004;2024-03-23T04:48:13;15.07;;;9.80;;
46653;SDS011;38960;51.074;17.004;2024-03-23T04:50:38;18.02;;;9.93;;
46653;SDS011;38960;51.074;17.004;2024-03-23T04:53:04;17.40;;;9.80;;
46653;SDS011;38960;51.074;17.004;2024-03-23T04:55:29;17.73;;;11.18;;
46653;SDS011;38960;51.074;17.004;2024-03-23T04:57:56;17.38;;;10.30;;
46653;SDS011;38960;51.074;17.004;2024-03-23T05:00:21;20.50;;;12.05;;
46653;SDS011;38960;51.074;17.004;2024-03-23T05:02:48;18.23;;;10.77;;
46653;SDS011;38960;51.074;17.004;2024-03-23T05:05:14;19.77;;;11.88;;
46653;SDS011;38960;51.074;17.004;2024-03-23T05:07:39;19.10;;;11.00;;
46653;SDS011;38960;51.074;17.004;2024-03-23T05:10:07;17.77;;;10.65;;
46653;SDS011;38960;51.074;17.004;2024-03-23T05:12:35;17.48;;;10.75;;
46653;SDS011;38960;51.074;17.004;2024-03-23T05:15:01;15.70;;;11.23;;
46653;SDS011;38960;51.074;17.004;2024-03-23T05:17:27;15.30;;;10.05;;
46653;SDS011;38960;51.074;17.004;2024-03-23T05:19:52;16.75;;;10.38;;
46653;SDS011;38960;51.074;17.004;2024-03-23T05:22:18;17.80;;;10.25;;
46653;SDS011;38960;51.074;17.004;2024-03-23T05:24:44;18.15;;;10.77;;
46653;SDS011;38960;51.074;17.004;2024-03-23T05:27:10;16.80;;;10.98;;
46653;SDS011;38960;51.074;17.004;2024-03-23T05:29:36;16.50;;;10.88;;
46653;SDS011;38960;51.074;17.004;2024-03-23T05:32:01;19.45;;;11.88;;
46653;SDS011;38960;51.074;17.004;2024-03-23T05:34:27;17.20;;;11.18;;
46653;SDS011;38960;51.074;17.004;2024-03-23T05:36:54;17.20;;;10.73;;
46653;SDS011;38960;51.074;17.004;2024-03-23T05:39:19;20.95;;;12.25;;
46653;SDS011;38960;51.074;17.004;2024-03-23T05:41:47;19.40;;;11.00;;
46653;SDS011;38960;51.074;17.004;2024-03-23T05:44:13;15.35;;;10.50;;
46653;SDS011;38960;51.074;17.004;2024-03-23T05:46:40;16.05;;;10.68;;
46653;SDS011;38960;51.074;17.004;2024-03-23T05:49:06;15.77;;;10.23;;
46653;SDS011;38960;51.074;17.004;2024-03-23T05:51:31;20.02;;;11.30;;
46653;SDS011;38960;51.074;17.004;2024-03-23T05:53:57;17.65;;;10.20;;
46653;SDS011;38960;51.074;17.004;2024-03-23T05:56:23;15.85;;;9.73;;
46653;SDS011;38960;51.074;17.004;2024-03-23T05:58:48;15.95;;;10.40;;
46653;SDS011;38960;51.074;17.004;2024-03-23T06:01:14;21.15;;;11.13;;
46653;SDS011;38960;51.074;17.004;2024-03-23T06:03:39;20.30;;;11.00;;
46653;SDS011;38960;51.074;17.004;2024-03-23T06:06:05;14.75;;;10.13;;
46653;SDS011;38960;51.074;17.004;2024-03-23T06:08:35;20.52;;;10.38;;
46653;SDS011;38960;51.074;17.004;2024-03-23T06:11:01;17.15;;;10.15;;
46653;SDS011;38960;51.074;17.004;2024-03-23T06:13:26;18.65;;;10.50;;
46653;SDS011;38960;51.074;17.004;2024-03-23T06:15:55;17.60;;;10.80;;
46653;SDS011;38960;51.074;17.004;2024-03-23T06:18:20;18.48;;;10.73;;
46653;SDS011;38960;51.074;17.004;2024-03-23T06:20:46;17.52;;;9.77;;
46653;SDS011;38960;51.074;17.004;2024-03-23T06:23:11;13.45;;;9.80;;
46653;SDS011;38960;51.074;17.004;2024-03-23T06:25:38;17.15;;;9.98;;
46653;SDS011;38960;51.074;17.004;2024-03-23T06:28:03;16.35;;;10.27;;
46653;SDS011;38960;51.074;17.004;2024-03-23T06:30:29;15.35;;;10.48;;
46653;SDS011;38960;51.074;17.004;2024-03-23T06:32:56;16.90;;;10.43;;
46653;SDS011;38960;51.074;17.004;2024-03-23T06:35:22;17.45;;;10.02;;
46653;SDS011;38960;51.074;17.004;2024-03-23T06:37:48;13.75;;;9.50;;
46653;SDS011;38960;51.074;17.004;2024-03-23T06:40:13;17.77;;;11.25;;
46653;SDS011;38960;51.074;17.004;2024-03-23T06:42:39;17.67;;;9.43;;
46653;SDS011;38960;51.074;17.004;2024-03-23T06:45:05;15.02;;;10.43;;
46653;SDS011;38960;51.074;17.004;2024-03-23T06:47:31;17.38;;;9.65;;
46653;SDS011;38960;51.074;17.004;2024-03-23T06:49:56;16.60;;;9.98;;
46653;SDS011;38960;51.074;17.004;2024-03-23T06:52:22;14.75;;;9.63;;
46653;SDS011;38960;51.074;17.004;2024-03-23T06:54:48;17.38;;;9.70;;
46653;SDS011;38960;51.074;17.004;2024-03-23T06:57:13;20.23;;;10.43;;
46653;SDS011;38960;51.074;17.004;2024-03-23T06:59:39;16.08;;;9.63;;
46653;SDS011;38960;51.074;17.004;2024-03-23T07:02:05;14.80;;;8.82;;
46653;SDS011;38960;51.074;17.004;2024-03-23T07:04:33;15.05;;;9.00;;
46653;SDS011;38960;51.074;17.004;2024-03-23T07:06:59;15.30;;;11.13;;
46653;SDS011;38960;51.074;17.004;2024-03-23T07:09:25;13.55;;;8.93;;
46653;SDS011;38960;51.074;17.004;2024-03-23T07:11:53;11.35;;;8.45;;
46653;SDS011;38960;51.074;17.004;2024-03-23T07:14:19;11.13;;;8.02;;
46653;SDS011;38960;51.074;17.004;2024-03-23T07:16:45;12.15;;;8.80;;
46653;SDS011;38960;51.074;17.004;2024-03-23T07:19:11;11.35;;;8.82;;
46653;SDS011;38960;51.074;17.004;2024-03-23T07:21:36;11.93;;;7.47;;
46653;SDS011;38960;51.074;17.004;2024-03-23T07:24:02;11.02;;;8.55;;
46653;SDS011;38960;51.074;17.004;2024-03-23T07:26:27;12.05;;;9.13;;
46653;SDS011;38960;51.074;17.004;2024-03-23T07:28:53;12.35;;;8.18;;
46653;SDS011;38960;51.074;17.004;2024-03-23T07:31:19;18.60;;;17.10;;
46653;SDS011;38960;51.074;17.004;2024-03-23T07:33:45;11.27;;;8.52;;
46653;SDS011;38960;51.074;17.004;2024-03-23T07:36:11;17.13;;;8.88;;
46653;SDS011;38960;51.074;17.004;2024-03-23T07:38:37;14.35;;;8.82;;
46653;SDS011;38960;51.074;17.004;2024-03-23T07:41:06;13.38;;;8.52;;
46653;SDS011;38960;51.074;17.004;2024-03-23T07:43:38;11.48;;;8.43;;
46653;SDS011;38960;51.074;17.004;2024-03-23T07:46:05;12.27;;;8.30;;
46653;SDS011;38960;51.074;17.004;2024-03-23T07:48:31;9.90;;;7.97;;
46653;SDS011;38960;51.074;17.004;2024-03-23T07:53:33;9.48;;;7.07;;
46653;SDS011;38960;51.074;17.004;2024-03-23T07:56:00;14.20;;;7.95;;
46653;SDS011;38960;51.074;17.004;2024-03-23T07:58:27;10.75;;;7.60;;
46653;SDS011;38960;51.074;17.004;2024-03-23T08:00:53;9.73;;;7.60;;
46653;SDS011;38960;51.074;17.004;2024-03-23T08:03:19;11.68;;;7.82;;
46653;SDS011;38960;51.074;17.004;2024-03-23T08:05:45;11.77;;;8.20;;
46653;SDS011;38960;51.074;17.004;2024-03-23T08:08:10;11.05;;;8.85;;
46653;SDS011;38960;51.074;17.004;2024-03-23T08:10:36;9.80;;;7.50;;
46653;SDS011;38960;51.074;17.004;2024-03-23T08:13:02;15.20;;;8.27;;
46653;SDS011;38960;51.074;17.004;2024-03-23T08:15:30;10.18;;;8.02;;
46653;SDS011;38960;51.074;17.004;2024-03-23T08:17:58;12.05;;;8.82;;
46653;SDS011;38960;51.074;17.004;2024-03-23T08:20:24;11.77;;;8.63;;
46653;SDS011;38960;51.074;17.004;2024-03-23T08:22:50;19.10;;;8.60;;
46653;SDS011;38960;51.074;17.004;2024-03-23T08:25:15;12.90;;;7.68;;
46653;SDS011;38960;51.074;17.004;2024-03-23T08:27:43;10.75;;;8.25;;
46653;SDS011;38960;51.074;17.004;2024-03-23T08:30:09;15.27;;;8.70;;
46653;SDS011;38960;51.074;17.004;2024-03-23T08:32:36;14.18;;;8.25;;
46653;SDS011;38960;51.074;17.004;2024-03-23T08:35:01;12.68;;;8.20;;
46653;SDS011;38960;51.074;17.004;2024-03-23T08:37:27;11.85;;;8.88;;
46653;SDS011;38960;51.074;17.004;2024-03-23T08:39:53;11.98;;;8.15;;
46653;SDS011;38960;51.074;17.004;2024-03-23T08:42:18;10.10;;;7.93;;
46653;SDS011;38960;51.074;17.004;2024-03-23T08:44:44;11.88;;;8.05;;
46653;SDS011;38960;51.074;17.004;2024-03-23T08:47:11;12.02;;;8.52;;
46653;SDS011;38960;51.074;17.004;2024-03-23T08:49:37;18.25;;;11.05;;
46653;SDS011;38960;51.074;17.004;2024-03-23T08:52:03;12.85;;;9.85;;
46653;SDS011;38960;51.074;17.004;2024-03-23T08:54:28;10.57;;;8.55;;
46653;SDS011;38960;51.074;17.004;2024-03-23T08:56:56;12.52;;;8.73;;
46653;SDS011;38960;51.074;17.004;2024-03-23T08:59:21;14.52;;;8.05;;
46653;SDS011;38960;51.074;17.004;2024-03-23T09:01:48;11.27;;;8.07;;
46653;SDS011;38960;51.074;17.004;2024-03-23T09:04:14;21.00;;;8.52;;
46653;SDS011;38960;51.074;17.004;2024-03-23T09:06:42;17.27;;;8.82;;
46653;SDS011;38960;51.074;17.004;2024-03-23T09:09:08;14.23;;;7.80;;
46653;SDS011;38960;51.074;17.004;2024-03-23T09:11:33;11.50;;;8.13;;
46653;SDS011;38960;51.074;17.004;2024-03-23T09:13:59;14.70;;;8.45;;
46653;SDS011;38960;51.074;17.004;2024-03-23T09:16:24;18.13;;;8.60;;
46653;SDS011;38960;51.074;17.004;2024-03-23T09:18:51;11.88;;;7.88;;
46653;SDS011;38960;51.074;17.004;2024-03-23T09:21:17;12.15;;;8.80;;
46653;SDS011;38960;51.074;17.004;2024-03-23T09:23:43;11.75;;;8.23;;
46653;SDS011;38960;51.074;17.004;2024-03-23T09:26:09;11.25;;;8.25;;
46653;SDS011;38960;51.074;17.004;2024-03-23T09:28:34;12.77;;;7.68;;
46653;SDS011;38960;51.074;17.004;2024-03-23T09:31:03;13.93;;;7.95;;
46653;SDS011;38960;51.074;17.004;2024-03-23T09:33:30;12.07;;;7.65;;
46653;SDS011;38960;51.074;17.004;2024-03-23T09:35:55;10.82;;;8.52;;
46653;SDS011;38960;51.074;17.004;2024-03-23T09:38:21;14.50;;;7.65;;
46653;SDS011;38960;51.074;17.004;2024-03-23T09:40:48;12.05;;;7.82;;
46653;SDS011;38960;51.074;17.004;2024-03-23T09:43:15;12.60;;;6.80;;
46653;SDS011;38960;51.074;17.004;2024-03-23T09:45:41;12.35;;;7.30;;
46653;SDS011;38960;51.074;17.004;2024-03-23T09:48:06;11.00;;;6.75;;
46653;SDS011;38960;51.074;17.004;2024-03-23T09:50:34;9.40;;;6.53;;
46653;SDS011;38960;51.074;17.004;2024-03-23T09:53:01;9.77;;;6.97;;
46653;SDS011;38960;51.074;17.004;2024-03-23T09:55:26;11.77;;;6.85;;
46653;SDS011;38960;51.074;17.004;2024-03-23T09:57:52;13.88;;;6.85;;
46653;SDS011;38960;51.074;17.004;2024-03-23T10:00:17;13.63;;;7.15;;
46653;SDS011;38960;51.074;17.004;2024-03-23T10:02:43;9.40;;;6.72;;
46653;SDS011;38960;51.074;17.004;2024-03-23T10:05:21;15.10;;;7.78;;
46653;SDS011;38960;51.074;17.004;2024-03-23T10:07:52;10.70;;;6.40;;
46653;SDS011;38960;51.074;17.004;2024-03-23T10:10:18;9.60;;;6.97;;
46653;SDS011;38960;51.074;17.004;2024-03-23T10:12:48;11.68;;;6.78;;
46653;SDS011;38960;51.074;17.004;2024-03-23T10:15:18;9.65;;;7.35;;
46653;SDS011;38960;51.074;17.004;2024-03-23T10:17:44;11.73;;;6.85;;
46653;SDS011;38960;51.074;17.004;2024-03-23T10:20:10;14.02;;;6.70;;
46653;SDS011;38960;51.074;17.004;2024-03-23T10:22:39;13.57;;;8.10;;
46653;SDS011;38960;51.074;17.004;2024-03-23T10:25:09;9.50;;;7.70;;
46653;SDS011;38960;51.074;17.004;2024-03-23T10:27:35;12.90;;;7.05;;
46653;SDS011;38960;51.074;17.004;2024-03-23T10:30:08;13.05;;;7.22;;
46653;SDS011;38960;51.074;17.004;2024-03-23T10:32:35;10.18;;;6.88;;
46653;SDS011;38960;51.074;17.004;2024-03-23T10:35:34;11.90;;;6.85;;
46653;SDS011;38960;51.074;17.004;2024-03-23T10:37:53;10.57;;;7.18;;
46653;SDS011;38960;51.074;17.004;2024-03-23T10:40:20;9.43;;;6.50;;
46653;SDS011;38960;51.074;17.004;2024-03-23T10:42:46;10.15;;;6.78;;
46653;SDS011;38960;51.074;17.004;2024-03-23T10:45:11;10.63;;;6.80;;
46653;SDS011;38960;51.074;17.004;2024-03-23T10:47:37;9.30;;;6.75;;
46653;SDS011;38960;51.074;17.004;2024-03-23T10:50:06;10.15;;;6.95;;
46653;SDS011;38960;51.074;17.004;2024-03-23T10:52:32;9.02;;;6.70;;
46653;SDS011;38960;51.074;17.004;2024-03-23T10:55:00;12.50;;;6.90;;
46653;SDS011;38960;51.074;17.004;2024-03-23T10:57:36;12.30;;;6.95;;
46653;SDS011;38960;51.074;17.004;2024-03-23T11:00:05;8.30;;;4.53;;
46653;SDS011;38960;51.074;17.004;2024-03-23T11:02:31;6.70;;;3.63;;
46653;SDS011;38960;51.074;17.004;2024-03-23T11:04:57;5.78;;;3.40;;
46653;SDS011;38960;51.074;17.004;2024-03-23T11:09:51;8.57;;;5.38;;
46653;SDS011;38960;51.074;17.004;2024-03-23T11:17:30;7.22;;;4.45;;
46653;SDS011;38960;51.074;17.004;2024-03-23T11:19:57;8.75;;;5.38;;
46653;SDS011;38960;51.074;17.004;2024-03-23T11:22:42;7.57;;;4.97;;
46653;SDS011;38960;51.074;17.004;2024-03-23T11:27:51;10.88;;;6.13;;
46653;SDS011;38960;51.074;17.004;2024-03-23T11:30:37;9.80;;;5.30;;
46653;SDS011;38960;51.074;17.004;2024-03-23T11:33:05;8.27;;;4.15;;
46653;SDS011;38960;51.074;17.004;2024-03-23T11:35:33;11.30;;;4.10;;
46653;SDS011;38960;51.074;17.004;2024-03-23T11:38:06;5.38;;;3.65;;
46653;SDS011;38960;51.074;17.004;2024-03-23T11:40:33;8.30;;;3.65;;
46653;SDS011;38960;51.074;17.004;2024-03-23T11:43:00;8.27;;;3.85;;
46653;SDS011;38960;51.074;17.004;2024-03-23T11:45:26;10.55;;;4.05;;
46653;SDS011;38960;51.074;17.004;2024-03-23T11:50:32;5.78;;;3.88;;
46653;SDS011;38960;51.074;17.004;2024-03-23T11:55:55;5.18;;;3.72;;
46653;SDS011;38960;51.074;17.004;2024-03-23T11:58:25;8.63;;;3.88;;
46653;SDS011;38960;51.074;17.004;2024-03-23T12:00:58;6.38;;;4.00;;
46653;SDS011;38960;51.074;17.004;2024-03-23T12:03:24;5.15;;;2.72;;
46653;SDS011;38960;51.074;17.004;2024-03-23T12:05:53;6.88;;;3.95;;
46653;SDS011;38960;51.074;17.004;2024-03-23T12:08:19;4.78;;;3.47;;
46653;SDS011;38960;51.074;17.004;2024-03-23T12:10:53;6.70;;;4.03;;
46653;SDS011;38960;51.074;17.004;2024-03-23T12:13:31;5.82;;;3.30;;
46653;SDS011;38960;51.074;17.004;2024-03-23T12:16:08;9.55;;;3.88;;
46653;SDS011;38960;51.074;17.004;2024-03-23T12:18:34;7.53;;;3.47;;
46653;SDS011;38960;51.074;17.004;2024-03-23T12:21:00;6.47;;;3.42;;
46653;SDS011;38960;51.074;17.004;2024-03-23T12:23:25;6.72;;;3.30;;
46653;SDS011;38960;51.074;17.004;2024-03-23T12:25:51;5.63;;;3.47;;
46653;SDS011;38960;51.074;17.004;2024-03-23T12:28:16;11.07;;;3.67;;
46653;SDS011;38960;51.074;17.004;2024-03-23T12:30:42;5.35;;;2.92;;
46653;SDS011;38960;51.074;17.004;2024-03-23T12:33:07;4.65;;;2.78;;
46653;SDS011;38960;51.074;17.004;2024-03-23T12:35:33;5.97;;;2.72;;
46653;SDS011;38960;51.074;17.004;2024-03-23T12:37:59;4.50;;;2.78;;
46653;SDS011;38960;51.074;17.004;2024-03-23T12:40:24;6.72;;;3.00;;
46653;SDS011;38960;51.074;17.004;2024-03-23T12:42:50;6.20;;;2.80;;
46653;SDS011;38960;51.074;17.004;2024-03-23T12:45:15;7.70;;;3.60;;
46653;SDS011;38960;51.074;17.004;2024-03-23T12:47:41;6.82;;;2.90;;
46653;SDS011;38960;51.074;17.004;2024-03-23T12:50:07;8.70;;;2.88;;
46653;SDS011;38960;51.074;17.004;2024-03-23T12:52:33;10.35;;;3.90;;
46653;SDS011;38960;51.074;17.004;2024-03-23T12:54:58;5.75;;;3.05;;
46653;SDS011;38960;51.074;17.004;2024-03-23T12:57:24;7.72;;;3.72;;
46653;SDS011;38960;51.074;17.004;2024-03-23T12:59:50;4.90;;;3.00;;
46653;SDS011;38960;51.074;17.004;2024-03-23T13:02:17;6.00;;;3.40;;
46653;SDS011;38960;51.074;17.004;2024-03-23T13:04:45;12.55;;;4.30;;
46653;SDS011;38960;51.074;17.004;2024-03-23T13:07:11;10.63;;;3.38;;
46653;SDS011;38960;51.074;17.004;2024-03-23T13:09:37;6.75;;;2.90;;
46653;SDS011;38960;51.074;17.004;2024-03-23T13:12:03;4.97;;;2.83;;
46653;SDS011;38960;51.074;17.004;2024-03-23T13:14:29;7.10;;;3.17;;
46653;SDS011;38960;51.074;17.004;2024-03-23T13:16:54;6.30;;;3.10;;
46653;SDS011;38960;51.074;17.004;2024-03-23T13:19:20;4.70;;;3.25;;
46653;SDS011;38960;51.074;17.004;2024-03-23T13:21:46;5.57;;;3.35;;
46653;SDS011;38960;51.074;17.004;2024-03-23T13:24:12;5.28;;;3.70;;
46653;SDS011;38960;51.074;17.004;2024-03-23T13:26:37;7.00;;;3.90;;
46653;SDS011;38960;51.074;17.004;2024-03-23T13:29:03;6.22;;;3.88;;
46653;SDS011;38960;51.074;17.004;2024-03-23T13:31:28;6.63;;;3.97;;
46653;SDS011;38960;51.074;17.004;2024-03-23T13:33:54;6.97;;;3.58;;
46653;SDS011;38960;51.074;17.004;2024-03-23T13:36:19;4.43;;;3.25;;
46653;SDS011;38960;51.074;17.004;2024-03-23T13:38:45;3.60;;;2.55;;
46653;SDS011;38960;51.074;17.004;2024-03-23T13:41:10;5.88;;;2.53;;
46653;SDS011;38960;51.074;17.004;2024-03-23T13:43:37;7.00;;;3.08;;
46653;SDS011;38960;51.074;17.004;2024-03-23T13:46:03;6.13;;;2.47;;
46653;SDS011;38960;51.074;17.004;2024-03-23T13:48:28;4.07;;;2.05;;
46653;SDS011;38960;51.074;17.004;2024-03-23T13:51:00;8.25;;;2.85;;
46653;SDS011;38960;51.074;17.004;2024-03-23T13:53:27;6.90;;;2.80;;
46653;SDS011;38960;51.074;17.004;2024-03-23T13:55:53;5.15;;;2.50;;
46653;SDS011;38960;51.074;17.004;2024-03-23T13:58:19;4.55;;;2.70;;
46653;SDS011;38960;51.074;17.004;2024-03-23T14:00:44;5.82;;;2.08;;
46653;SDS011;38960;51.074;17.004;2024-03-23T14:03:11;2.50;;;2.08;;
46653;SDS011;38960;51.074;17.004;2024-03-23T14:05:37;4.80;;;1.63;;
46653;SDS011;38960;51.074;17.004;2024-03-23T14:08:09;5.75;;;1.80;;
46653;SDS011;38960;51.074;17.004;2024-03-23T14:10:35;3.03;;;1.33;;
46653;SDS011;38960;51.074;17.004;2024-03-23T14:13:02;1.63;;;0.98;;
46653;SDS011;38960;51.074;17.004;2024-03-23T14:15:31;1.58;;;1.00;;
46653;SDS011;38960;51.074;17.004;2024-03-23T14:17:56;3.70;;;1.40;;
46653;SDS011;38960;51.074;17.004;2024-03-23T14:20:22;1.33;;;0.73;;
46653;SDS011;38960;51.074;17.004;2024-03-23T14:22:51;1.02;;;0.80;;
46653;SDS011;38960;51.074;17.004;2024-03-23T14:25:17;1.95;;;0.70;;
46653;SDS011;38960;51.074;17.004;2024-03-23T14:27:46;1.20;;;1.10;;
46653;SDS011;38960;51.074;17.004;2024-03-23T14:30:12;1.45;;;0.63;;
46653;SDS011;38960;51.074;17.004;2024-03-23T14:32:39;2.15;;;0.40;;
46653;SDS011;38960;51.074;17.004;2024-03-23T14:35:05;2.25;;;0.60;;
46653;SDS011;38960;51.074;17.004;2024-03-23T14:37:38;4.75;;;0.65;;
46653;SDS011;38960;51.074;17.004;2024-03-23T14:40:04;1.55;;;0.82;;
46653;SDS011;38960;51.074;17.004;2024-03-23T14:42:30;2.20;;;1.00;;
46653;SDS011;38960;51.074;17.004;2024-03-23T14:44:57;2.70;;;0.85;;
46653;SDS011;38960;51.074;17.004;2024-03-23T14:47:23;2.80;;;1.00;;
46653;SDS011;38960;51.074;17.004;2024-03-23T14:49:48;3.30;;;1.13;;
46653;SDS011;38960;51.074;17.004;2024-03-23T14:52:18;1.65;;;0.95;;
46653;SDS011;38960;51.074;17.004;2024-03-23T14:54:44;2.40;;;1.02;;
46653;SDS011;38960;51.074;17.004;2024-03-23T14:57:10;3.40;;;0.82;;
46653;SDS011;38960;51.074;17.004;2024-03-23T14:59:36;1.30;;;0.60;;
46653;SDS011;38960;51.074;17.004;2024-03-23T15:02:06;1.70;;;0.80;;
46653;SDS011;38960;51.074;17.004;2024-03-23T15:04:34;1.63;;;1.02;;
46653;SDS011;38960;51.074;17.004;2024-03-23T15:07:00;1.35;;;1.08;;
46653;SDS011;38960;51.074;17.004;2024-03-23T15:09:26;1.83;;;1.17;;
46653;SDS011;38960;51.074;17.004;2024-03-23T15:11:51;3.95;;;0.90;;
46653;SDS011;38960;51.074;17.004;2024-03-23T15:14:20;2.97;;;1.20;;
46653;SDS011;38960;51.074;17.004;2024-03-23T15:16:45;3.58;;;1.20;;
46653;SDS011;38960;51.074;17.004;2024-03-23T15:19:13;2.55;;;1.27;;
46653;SDS011;38960;51.074;17.004;2024-03-23T15:21:39;1.70;;;1.45;;
46653;SDS011;38960;51.074;17.004;2024-03-23T15:24:05;1.35;;;1.00;;
46653;SDS011;38960;51.074;17.004;2024-03-23T15:26:31;1.42;;;0.90;;
46653;SDS011;38960;51.074;17.004;2024-03-23T15:28:58;1.80;;;1.00;;